Time;durP1;ratioP1;P1;durP2;ratioP2;P2;SDS_P1;SDS_P2;PMS_P1;PMS_P2;Temp;Humidity;BMP_temperature;BMP_pressure;BME280_temperature;BME280_humidity;BME280_pressure;Samples;Min_cycle;Max_cycle;Signal;HPM_P1;HPM_P2
2023/09/18 00:01:08;;;;;;;0.88;0.60;;;22.40;99.90;;;;;;5115412;28;20417;-57
2023/09/18 00:03:35;;;;;;;0.90;0.50;;;22.40;99.90;;;;;;5115293;28;20427;-57
2023/09/18 00:06:02;;;;;;;0.90;0.60;;;22.40;99.90;;;;;;5115648;28;20420;-57
2023/09/18 00:08:29;;;;;;;1.03;0.60;;;22.50;79.20;;;;;;5108303;28;20433;-56
2023/09/18 00:10:57;;;;;;;1.70;0.60;;;22.40;3.40;;;;;;5114567;28;20746;-58
2023/09/18 00:13:24;;;;;;;1.30;0.50;;;22.50;5.80;;;;;;5115821;28;20499;-59
2023/09/18 00:15:59;;;;;;;1.10;0.60;;;22.40;2.70;;;;;;5115797;28;20786;-59
2023/09/18 00:18:26;;;;;;;1.35;0.60;;;22.40;99.90;;;;;;5115601;28;20863;-58
2023/09/18 00:20:54;;;;;;;0.90;0.60;;;22.40;18.50;;;;;;5114999;28;20715;-59
2023/09/18 00:23:21;;;;;;;1.50;0.60;;;22.40;25.00;;;;;;5109962;28;20429;-58
2023/09/18 00:25:48;;;;;;;1.50;0.50;;;22.40;1.00;;;;;;5113178;28;20420;-58
2023/09/18 00:28:15;;;;;;;1.00;0.60;;;22.40;17.60;;;;;;5115507;28;20420;-57
2023/09/18 00:30:49;;;;;;;1.60;0.60;;;22.40;1.00;;;;;;5114761;28;20428;-57
2023/09/18 00:33:19;;;;;;;1.00;0.60;;;22.50;1.00;;;;;;5115080;28;20420;-58
2023/09/18 00:35:49;;;;;;;1.20;0.60;;;22.50;1.00;;;;;;5114033;28;20431;-57
2023/09/18 00:38:17;;;;;;;0.90;0.60;;;22.40;1.00;;;;;;5113878;28;20519;-58
2023/09/18 00:40:44;;;;;;;1.60;0.60;;;22.40;1.00;;;;;;5114331;28;20410;-57
2023/09/18 00:43:11;;;;;;;1.27;0.60;;;22.40;1.00;;;;;;5114088;28;20412;-57
2023/09/18 00:45:43;;;;;;;1.10;0.57;;;22.50;1.00;;;;;;5114620;28;20693;-58
2023/09/18 00:48:10;;;;;;;0.80;0.52;;;22.50;1.00;;;;;;5114116;28;20416;-59
2023/09/18 00:50:39;;;;;;;1.17;0.50;;;22.50;1.00;;;;;;5115487;28;20867;-56
2023/09/18 00:53:09;;;;;;;0.90;0.60;;;22.60;1.00;;;;;;5115261;28;20425;-57
2023/09/18 00:55:39;;;;;;;0.80;0.50;;;22.70;1.00;;;;;;5115322;28;20446;-56
2023/09/18 00:58:07;;;;;;;1.00;0.53;;;22.70;1.00;;;;;;5115746;28;20468;-57
2023/09/18 01:00:34;;;;;;;0.90;0.60;;;22.70;1.00;;;;;;5115155;28;20422;-57
2023/09/18 01:03:03;;;;;;;0.90;0.60;;;22.80;1.00;;;;;;5115052;28;20437;-58
2023/09/18 01:05:33;;;;;;;1.70;0.55;;;22.70;1.00;;;;;;5115010;28;20715;-58
2023/09/18 01:08:01;;;;;;;1.20;0.60;;;22.70;1.00;;;;;;5112530;28;20416;-57
2023/09/18 01:10:34;;;;;;;0.80;0.60;;;22.70;99.90;;;;;;5109965;28;20428;-57
2023/09/18 01:13:06;;;;;;;0.82;0.50;;;22.70;1.00;;;;;;5114829;28;21043;-60
2023/09/18 01:15:41;;;;;;;1.15;0.60;;;22.70;99.90;;;;;;5115095;28;20885;-57
2023/09/18 01:18:10;;;;;;;1.00;0.60;;;22.60;1.00;;;;;;5114612;28;20427;-58
2023/09/18 01:20:37;;;;;;;0.80;0.50;;;22.70;1.00;;;;;;5114815;28;20408;-58
2023/09/18 01:23:06;;;;;;;0.73;0.50;;;22.70;1.00;;;;;;5115112;28;20422;-57
2023/09/18 01:25:33;;;;;;;1.40;0.60;;;22.50;1.00;;;;;;5113974;28;20411;-59
2023/09/18 01:28:00;;;;;;;0.80;0.50;;;22.50;1.00;;;;;;5114331;28;20420;-56
2023/09/18 01:30:27;;;;;;;1.30;0.50;;;22.50;1.00;;;;;;5113781;28;20855;-57
2023/09/18 01:32:57;;;;;;;0.80;0.57;;;22.50;1.00;;;;;;5113517;28;20846;-57
2023/09/18 01:35:29;;;;;;;1.80;0.60;;;22.60;1.00;;;;;;5112998;28;20435;-58
2023/09/18 01:37:57;;;;;;;1.38;0.60;;;22.70;1.00;;;;;;5110774;28;20789;-58
2023/09/18 01:40:26;;;;;;;0.90;0.60;;;22.70;1.00;;;;;;5107266;28;20407;-58
2023/09/18 01:42:53;;;;;;;1.30;0.50;;;22.70;1.00;;;;;;5116707;28;20424;-57
2023/09/18 01:45:21;;;;;;;1.03;0.50;;;22.80;1.00;;;;;;5116390;28;20420;-55
2023/09/18 01:47:48;;;;;;;0.90;0.60;;;22.70;1.00;;;;;;5116979;28;20424;-54
2023/09/18 01:50:15;;;;;;;0.70;0.50;;;22.70;1.00;;;;;;5115575;28;20424;-57
2023/09/18 01:52:42;;;;;;;1.08;0.60;;;22.80;1.00;;;;;;5114900;28;20422;-55
2023/09/18 01:55:10;;;;;;;0.80;0.60;;;22.60;1.00;;;;;;5108356;28;20413;-57
2023/09/18 01:57:39;;;;;;;0.80;0.40;;;22.70;1.00;;;;;;5096867;28;20413;-57
2023/09/18 02:00:09;;;;;;;0.90;0.40;;;22.70;99.90;;;;;;5096587;28;20417;-56
2023/09/18 02:02:37;;;;;;;1.60;0.50;;;22.80;99.90;;;;;;5096307;28;20433;-56
2023/09/18 02:05:04;;;;;;;1.90;0.50;;;22.90;99.90;;;;;;5097593;28;20491;-56
2023/09/18 02:07:32;;;;;;;1.45;0.50;;;22.90;1.00;;;;;;5097892;28;20437;-58
2023/09/18 02:09:59;;;;;;;1.38;0.50;;;22.80;99.90;;;;;;5097984;28;20489;-58
2023/09/18 02:12:26;;;;;;;0.80;0.50;;;22.50;99.90;;;;;;5097658;28;20414;-58
2023/09/18 02:14:57;;;;;;;1.40;0.50;;;22.30;1.00;;;;;;5097056;28;20857;-58
2023/09/18 02:17:24;;;;;;;3.42;0.52;;;22.20;9.90;;;;;;5097161;28;20428;-58
2023/09/18 02:19:51;;;;;;;2.30;0.60;;;22.00;99.90;;;;;;5097641;28;20440;-58
2023/09/18 02:22:18;;;;;;;1.67;0.40;;;22.00;99.90;;;;;;5096677;28;20675;-56
2023/09/18 02:24:45;;;;;;;0.77;0.40;;;21.80;1.00;;;;;;5090526;28;20461;-58
2023/09/18 02:27:12;;;;;;;1.10;0.40;;;21.70;1.00;;;;;;5097562;28;20421;-57
2023/09/18 02:29:40;;;;;;;1.50;0.40;;;21.70;99.90;;;;;;5097744;28;20852;-58
2023/09/18 02:32:09;;;;;;;1.70;0.80;;;21.70;1.00;;;;;;5097313;28;20453;-58
2023/09/18 02:34:37;;;;;;;2.20;0.40;;;21.80;1.00;;;;;;5096715;28;20737;-59
2023/09/18 02:37:04;;;;;;;1.00;0.47;;;21.90;1.00;;;;;;5097137;28;20756;-59
2023/09/18 02:39:31;;;;;;;2.00;0.40;;;21.90;1.00;;;;;;5097329;28;20479;-58
2023/09/18 02:41:58;;;;;;;1.20;0.40;;;22.00;99.90;;;;;;5097612;28;20472;-56
2023/09/18 02:44:25;;;;;;;1.80;0.40;;;22.10;99.90;;;;;;5096591;28;20425;-58
2023/09/18 02:46:53;;;;;;;3.50;0.50;;;22.20;1.00;;;;;;5097016;28;20718;-58
2023/09/18 02:49:21;;;;;;;2.05;0.40;;;22.20;1.00;;;;;;5096084;28;20418;-54
2023/09/18 02:51:49;;;;;;;1.90;0.40;;;22.10;99.90;;;;;;5097618;28;20440;-57
2023/09/18 02:54:16;;;;;;;4.00;0.60;;;22.10;99.90;;;;;;5096210;28;20429;-57
2023/09/18 02:56:44;;;;;;;2.73;0.50;;;22.10;1.00;;;;;;5123240;27;20422;-57
2023/09/18 02:59:11;;;;;;;2.60;0.50;;;22.20;54.80;;;;;;5137769;27;20418;-60
2023/09/18 03:01:38;;;;;;;1.83;0.40;;;22.20;99.90;;;;;;5137950;27;20402;-57
2023/09/18 03:04:06;;;;;;;2.03;0.40;;;22.20;1.00;;;;;;5136995;27;20733;-58
2023/09/18 03:06:35;;;;;;;2.47;0.50;;;22.10;1.00;;;;;;5137946;27;20433;-59
2023/09/18 03:09:02;;;;;;;2.10;0.50;;;22.10;1.00;;;;;;5137835;27;20760;-58
2023/09/18 03:11:29;;;;;;;2.10;0.40;;;22.00;99.90;;;;;;5136893;27;20478;-57
2023/09/18 03:13:56;;;;;;;1.30;0.40;;;21.90;99.90;;;;;;5137104;27;20834;-55
2023/09/18 03:16:23;;;;;;;2.30;0.30;;;21.80;1.00;;;;;;5137317;27;20410;-55
2023/09/18 03:18:51;;;;;;;2.30;0.40;;;21.70;1.00;;;;;;5137321;27;20718;-57
2023/09/18 03:21:18;;;;;;;2.60;0.50;;;21.70;1.00;;;;;;5137267;27;20417;-58
2023/09/18 03:23:46;;;;;;;2.10;0.40;;;21.80;99.90;;;;;;5135866;27;20418;-58
2023/09/18 03:26:13;;;;;;;1.40;0.40;;;21.80;1.00;;;;;;5132268;27;20411;-58
2023/09/18 03:28:40;;;;;;;1.05;0.40;;;21.90;99.90;;;;;;5133118;27;20414;-58
2023/09/18 03:31:07;;;;;;;1.50;0.40;;;22.00;99.90;;;;;;5133379;27;20695;-55
2023/09/18 03:33:35;;;;;;;2.33;0.40;;;22.00;1.00;;;;;;5133197;27;20852;-57
2023/09/18 03:36:04;;;;;;;1.85;0.50;;;21.80;1.00;;;;;;5133124;27;20422;-57
2023/09/18 03:38:32;;;;;;;2.00;0.50;;;21.50;61.00;;;;;;5133899;27;20452;-59
2023/09/18 03:41:02;;;;;;;2.00;0.50;;;21.30;99.90;;;;;;5136627;27;20497;-55
2023/09/18 03:43:29;;;;;;;2.20;0.40;;;21.20;1.00;;;;;;5137164;27;20977;-55
2023/09/18 03:46:03;;;;;;;1.30;0.50;;;21.20;1.00;;;;;;5136637;27;20419;-57
2023/09/18 03:48:36;;;;;;;2.27;0.40;;;21.20;1.00;;;;;;5136729;27;20901;-59
2023/09/18 03:51:03;;;;;;;2.72;0.40;;;21.20;1.00;;;;;;5137087;27;20438;-57
2023/09/18 03:53:30;;;;;;;3.03;0.40;;;21.20;1.00;;;;;;5135552;27;20423;-57
2023/09/18 03:55:57;;;;;;;1.10;0.40;;;21.30;99.90;;;;;;5136477;27;20421;-55
2023/09/18 03:58:26;;;;;;;1.98;0.40;;;21.40;99.90;;;;;;5137129;27;20437;-56
2023/09/18 04:00:53;;;;;;;1.58;0.38;;;21.40;7.80;;;;;;5136906;27;20543;-57
2023/09/18 04:03:20;;;;;;;1.90;0.40;;;21.50;1.00;;;;;;5135156;27;20429;-58
2023/09/18 04:05:48;;;;;;;0.80;0.35;;;21.40;1.00;;;;;;5134552;27;20797;-58
2023/09/18 04:08:15;;;;;;;1.70;0.40;;;21.30;12.40;;;;;;5125796;27;20422;-55
2023/09/18 04:10:42;;;;;;;0.80;0.50;;;21.30;99.90;;;;;;5129698;27;20419;-57
2023/09/18 04:13:09;;;;;;;1.10;0.40;;;21.20;99.90;;;;;;5136183;27;20509;-57
2023/09/18 04:15:38;;;;;;;1.30;0.40;;;21.30;99.90;;;;;;5135735;27;20714;-56
2023/09/18 04:18:05;;;;;;;1.67;0.40;;;21.40;99.90;;;;;;5135956;27;20440;-57
2023/09/18 04:20:33;;;;;;;0.80;0.40;;;21.50;3.10;;;;;;5135516;27;20424;-56
2023/09/18 04:23:19;;;;;;;1.20;0.50;;;21.50;29.70;;;;;;5136525;27;20415;-59
2023/09/18 04:25:46;;;;;;;1.25;0.40;;;21.50;99.90;;;;;;5136242;27;20406;-56
2023/09/18 04:28:14;;;;;;;2.20;0.50;;;21.60;99.90;;;;;;5134436;27;20772;-57
2023/09/18 04:30:42;;;;;;;1.88;0.50;;;21.60;99.90;;;;;;5134987;27;20421;-56
2023/09/18 04:33:09;;;;;;;1.90;0.47;;;21.70;46.30;;;;;;5135301;27;20463;-54
2023/09/18 04:35:39;;;;;;;1.52;0.50;;;21.60;1.00;;;;;;5134848;27;20422;-55
2023/09/18 04:38:08;;;;;;;2.40;0.50;;;21.60;1.00;;;;;;5134219;27;20426;-57
2023/09/18 04:40:35;;;;;;;2.30;0.50;;;21.50;99.90;;;;;;5133599;27;20436;-56
2023/09/18 04:43:04;;;;;;;1.27;0.50;;;21.50;99.90;;;;;;5135395;27;20426;-57
2023/09/18 04:45:32;;;;;;;1.23;0.60;;;21.50;99.90;;;;;;5135026;28;20414;-57
2023/09/18 04:48:01;;;;;;;1.05;0.55;;;21.50;99.90;;;;;;5134867;28;20426;-55
2023/09/18 04:50:28;;;;;;;1.70;0.50;;;21.50;99.90;;;;;;5133548;28;20424;-56
2023/09/18 04:52:57;;;;;;;1.90;0.60;;;21.50;99.90;;;;;;5131367;28;20513;-55
2023/09/18 04:55:24;;;;;;;1.30;0.50;;;21.50;99.90;;;;;;5124065;28;20434;-54
2023/09/18 04:57:51;;;;;;;1.85;0.50;;;21.50;99.90;;;;;;5135781;28;20418;-56
2023/09/18 05:00:23;;;;;;;1.60;0.50;;;21.40;99.90;;;;;;5135306;28;20432;-56
2023/09/18 05:02:50;;;;;;;0.80;0.50;;;21.30;99.90;;;;;;5134908;28;20426;-55
2023/09/18 05:05:19;;;;;;;3.63;0.50;;;21.30;99.90;;;;;;5135412;28;20737;-56
2023/09/18 05:07:46;;;;;;;1.80;0.50;;;21.30;99.90;;;;;;5133213;28;20467;-55
2023/09/18 05:10:13;;;;;;;2.05;0.50;;;21.30;99.90;;;;;;5133534;28;20445;-57
2023/09/18 05:12:41;;;;;;;2.60;0.50;;;21.20;99.90;;;;;;5134466;28;20481;-57
2023/09/18 05:15:12;;;;;;;1.93;0.40;;;21.20;99.90;;;;;;5133562;27;20422;-56
2023/09/18 05:17:44;;;;;;;0.90;0.50;;;21.20;1.00;;;;;;5136204;27;20457;-56
2023/09/18 05:20:15;;;;;;;1.02;0.50;;;21.10;1.00;;;;;;5135114;27;20767;-57
2023/09/18 05:22:44;;;;;;;1.73;0.50;;;21.00;1.00;;;;;;5134491;27;20415;-57
2023/09/18 05:25:12;;;;;;;2.22;0.50;;;20.90;1.00;;;;;;5117730;27;20429;-56
2023/09/18 05:27:44;;;;;;;0.80;0.50;;;20.90;1.00;;;;;;5134167;27;20828;-57
2023/09/18 05:30:14;;;;;;;1.30;0.50;;;20.90;1.00;;;;;;5134987;27;20520;-55
2023/09/18 05:32:42;;;;;;;0.90;0.40;;;20.90;1.00;;;;;;5135956;27;20465;-57
2023/09/18 05:35:12;;;;;;;1.73;0.60;;;20.80;1.00;;;;;;5136118;27;20841;-56
2023/09/18 05:37:40;;;;;;;1.45;0.40;;;20.90;1.00;;;;;;5137170;27;20787;-55
2023/09/18 05:40:10;;;;;;;1.00;0.40;;;20.90;1.00;;;;;;5137128;27;20417;-55
2023/09/18 05:42:38;;;;;;;0.98;0.40;;;20.80;1.00;;;;;;5136444;27;20424;-55
2023/09/18 05:45:06;;;;;;;1.47;0.50;;;20.80;1.00;;;;;;5135625;27;20422;-55
2023/09/18 05:47:35;;;;;;;2.63;0.40;;;20.80;1.00;;;;;;5137612;27;20422;-55
2023/09/18 05:50:04;;;;;;;1.83;0.50;;;20.70;1.00;;;;;;5136563;27;20468;-54
2023/09/18 05:52:31;;;;;;;0.90;0.40;;;20.80;1.00;;;;;;5137027;27;20414;-55
2023/09/18 05:55:00;;;;;;;1.55;0.40;;;20.80;1.00;;;;;;5134979;27;20422;-56
2023/09/18 05:57:28;;;;;;;1.30;0.40;;;20.90;1.00;;;;;;5135720;27;21001;-55
2023/09/18 05:59:56;;;;;;;0.90;0.50;;;20.90;1.00;;;;;;5135766;27;20414;-55
2023/09/18 06:02:24;;;;;;;0.80;0.40;;;20.90;1.00;;;;;;5136982;27;20421;-57
2023/09/18 06:04:57;;;;;;;0.80;0.43;;;20.90;1.00;;;;;;5136595;27;20415;-57
2023/09/18 06:07:25;;;;;;;0.93;0.40;;;20.80;1.00;;;;;;5136430;27;20923;-55
2023/09/18 06:09:52;;;;;;;1.15;0.50;;;20.80;1.00;;;;;;5135653;27;20844;-57
2023/09/18 06:12:19;;;;;;;1.40;0.45;;;20.70;1.00;;;;;;5134110;27;20436;-55
2023/09/18 06:14:48;;;;;;;1.00;0.50;;;20.70;1.00;;;;;;5135308;27;20426;-58
2023/09/18 06:17:16;;;;;;;1.10;0.40;;;20.60;1.00;;;;;;5141496;27;20429;-58
2023/09/18 06:19:43;;;;;;;1.90;0.40;;;20.60;1.00;;;;;;5128994;27;20449;-57
2023/09/18 06:22:10;;;;;;;2.50;0.70;;;20.60;1.00;;;;;;5141501;27;20438;-57
2023/09/18 06:24:37;;;;;;;0.77;0.40;;;20.60;1.00;;;;;;5153282;27;20478;-58
2023/09/18 06:27:05;;;;;;;2.30;0.50;;;20.70;1.00;;;;;;5153192;27;20431;-57
2023/09/18 06:29:34;;;;;;;1.73;0.50;;;20.70;1.00;;;;;;5155044;27;20430;-56
2023/09/18 06:32:02;;;;;;;2.60;0.50;;;20.70;1.00;;;;;;5156481;27;20465;-57
2023/09/18 06:34:29;;;;;;;1.80;0.50;;;20.60;1.00;;;;;;5157314;27;20409;-58
2023/09/18 06:36:57;;;;;;;1.42;0.40;;;20.70;1.00;;;;;;5153090;27;20871;-55
2023/09/18 06:39:25;;;;;;;3.55;0.50;;;20.70;1.00;;;;;;5156794;27;20638;-58
2023/09/18 06:41:53;;;;;;;2.22;0.40;;;20.60;1.00;;;;;;5129462;27;20441;-58
2023/09/18 06:44:21;;;;;;;2.33;0.45;;;20.70;1.00;;;;;;5134024;27;20691;-58
2023/09/18 06:46:48;;;;;;;1.57;0.50;;;20.70;1.00;;;;;;5135120;27;20411;-58
2023/09/18 06:49:17;;;;;;;1.20;0.40;;;20.50;1.00;;;;;;5134279;27;20847;-58
2023/09/18 06:51:44;;;;;;;1.15;0.50;;;20.30;1.00;;;;;;5131888;27;20475;-58
2023/09/18 06:54:11;;;;;;;2.17;0.40;;;20.20;6.30;;;;;;5133824;27;20525;-58
2023/09/18 06:56:38;;;;;;;1.10;0.40;;;20.20;9.10;;;;;;5142434;27;20443;-61
2023/09/18 06:59:05;;;;;;;0.60;0.35;;;20.30;19.90;;;;;;5155408;27;20700;-62
2023/09/18 07:01:33;;;;;;;1.20;0.40;;;20.20;26.50;;;;;;5149463;27;20504;-61
2023/09/18 07:04:00;;;;;;;1.40;0.40;;;20.10;33.90;;;;;;5146075;27;20448;-62
2023/09/18 07:06:29;;;;;;;1.42;0.50;;;20.10;43.30;;;;;;5115705;28;20423;-62
2023/09/18 07:08:56;;;;;;;0.70;0.40;;;20.20;37.40;;;;;;5114373;28;20510;-62
2023/09/18 07:11:24;;;;;;;1.10;0.40;;;20.30;25.60;;;;;;5146125;27;20519;-63
2023/09/18 07:13:51;;;;;;;1.00;0.40;;;20.40;16.40;;;;;;5149954;27;20611;-62
2023/09/18 07:16:18;;;;;;;1.10;0.40;;;20.50;8.70;;;;;;5122167;27;20721;-63
2023/09/18 07:18:45;;;;;;;1.80;0.40;;;20.60;1.00;;;;;;5129518;27;20865;-63
2023/09/18 07:21:12;;;;;;;1.08;0.40;;;20.70;1.00;;;;;;5115333;28;20420;-63
2023/09/18 07:23:42;;;;;;;1.85;0.38;;;20.80;1.00;;;;;;5114778;28;20416;-64
2023/09/18 07:26:09;;;;;;;0.60;0.20;;;20.90;1.00;;;;;;5114442;27;20774;-63
2023/09/18 07:28:38;;;;;;;1.00;0.30;;;20.90;1.00;;;;;;5152690;27;20429;-64
2023/09/18 07:31:07;;;;;;;3.70;0.35;;;21.20;1.00;;;;;;5153135;27;20573;-63
2023/09/18 07:33:34;;;;;;;1.10;0.30;;;21.30;1.00;;;;;;5152691;27;20716;-60
2023/09/18 07:36:01;;;;;;;1.17;0.50;;;21.30;1.00;;;;;;5150876;27;20887;-62
2023/09/18 07:38:29;;;;;;;1.30;0.30;;;21.40;1.00;;;;;;5137447;27;20431;-60
2023/09/18 07:40:57;;;;;;;1.20;0.30;;;21.50;1.00;;;;;;5148325;27;20408;-60
2023/09/18 07:43:26;;;;;;;1.02;0.30;;;21.50;99.90;;;;;;5145110;27;20397;-59
2023/09/18 07:45:54;;;;;;;0.70;0.30;;;21.50;1.00;;;;;;5153775;27;20449;-60
2023/09/18 07:48:22;;;;;;;1.40;0.38;;;21.50;99.90;;;;;;5155696;27;20905;-61
2023/09/18 07:50:50;;;;;;;0.60;0.30;;;21.60;99.90;;;;;;5154865;27;20416;-55
2023/09/18 07:53:17;;;;;;;2.70;0.30;;;21.60;99.90;;;;;;5154084;27;20499;-54
2023/09/18 07:55:45;;;;;;;0.70;0.30;;;21.60;99.90;;;;;;5154993;27;20836;-52
2023/09/18 07:58:14;;;;;;;1.30;0.20;;;21.50;95.10;;;;;;5144322;27;20452;-50
2023/09/18 08:00:41;;;;;;;0.70;0.20;;;21.50;99.90;;;;;;5154949;27;20420;-55
2023/09/18 08:03:09;;;;;;;0.50;0.20;;;21.40;99.90;;;;;;5154960;27;20504;-56
2023/09/18 08:05:36;;;;;;;0.68;0.40;;;21.50;99.90;;;;;;5152317;27;20519;-57
2023/09/18 08:08:05;;;;;;;0.90;0.20;;;21.50;99.90;;;;;;5153821;27;20863;-52
2023/09/18 08:10:32;;;;;;;0.90;0.20;;;21.60;99.90;;;;;;5154901;27;20470;-54
2023/09/18 08:12:59;;;;;;;0.70;0.20;;;21.70;99.90;;;;;;5145462;27;20438;-55
2023/09/18 08:15:29;;;;;;;0.60;0.20;;;21.80;1.00;;;;;;5130066;27;20430;-56
2023/09/18 08:17:56;;;;;;;0.40;0.20;;;21.80;99.20;;;;;;5119247;27;20515;-53
2023/09/18 08:20:23;;;;;;;0.40;0.17;;;21.80;91.00;;;;;;5132838;27;20515;-54
2023/09/18 08:22:50;;;;;;;0.52;0.20;;;21.70;1.00;;;;;;5133561;27;20431;-55
2023/09/18 08:25:17;;;;;;;0.60;0.20;;;21.80;1.00;;;;;;5120873;27;20429;-54
2023/09/18 08:27:45;;;;;;;0.53;0.20;;;21.80;1.00;;;;;;5153273;27;20691;-55
2023/09/18 08:30:13;;;;;;;0.40;0.10;;;21.80;1.00;;;;;;5150753;27;20506;-53
2023/09/18 08:32:43;;;;;;;0.70;0.20;;;21.70;1.00;;;;;;5146876;27;20489;-55
2023/09/18 08:35:10;;;;;;;1.30;0.30;;;21.50;1.00;;;;;;5149063;27;20425;-56
2023/09/18 08:37:37;;;;;;;0.50;0.20;;;21.40;99.90;;;;;;5152355;27;20495;-57
2023/09/18 08:40:09;;;;;;;0.45;0.20;;;21.50;99.90;;;;;;5148400;27;20428;-53
2023/09/18 08:42:38;;;;;;;0.70;0.20;;;21.50;99.90;;;;;;5145066;27;20428;-57
2023/09/18 08:45:09;;;;;;;0.90;0.30;;;21.20;1.00;;;;;;5152503;27;20507;-57
2023/09/18 08:47:37;;;;;;;0.90;0.30;;;21.10;1.00;;;;;;5147885;27;20871;-57
2023/09/18 08:50:07;;;;;;;1.30;0.20;;;21.20;1.00;;;;;;5140948;27;20437;-59
2023/09/18 08:52:36;;;;;;;1.08;0.20;;;21.10;1.00;;;;;;5150444;27;20456;-57
2023/09/18 08:55:04;;;;;;;0.50;0.20;;;21.10;1.00;;;;;;5158442;27;20427;-57
2023/09/18 08:57:32;;;;;;;1.00;0.20;;;21.00;1.00;;;;;;5159516;27;20463;-57
2023/09/18 09:00:05;;;;;;;0.50;0.20;;;20.90;1.00;;;;;;5160091;27;20803;-57
2023/09/18 09:02:32;;;;;;;0.50;0.20;;;20.80;1.00;;;;;;5159491;27;20448;-57
2023/09/18 09:04:59;;;;;;;0.50;0.20;;;20.70;1.00;;;;;;5159035;27;20478;-58
2023/09/18 09:07:31;;;;;;;0.50;0.20;;;20.40;1.00;;;;;;5158204;27;20704;-58
2023/09/18 09:09:58;;;;;;;0.50;0.20;;;20.40;1.00;;;;;;5158264;27;20944;-58
2023/09/18 09:12:50;;;;;;;0.90;0.30;;;20.20;1.00;;;;;;5157226;27;20428;-57
2023/09/18 09:15:18;;;;;;;1.00;0.20;;;20.00;1.00;;;;;;5142646;27;20432;-57
2023/09/18 09:17:45;;;;;;;0.90;0.20;;;20.10;1.00;;;;;;5155389;27;20869;-57
2023/09/18 09:20:14;;;;;;;0.80;0.22;;;20.10;10.40;;;;;;5154976;27;20456;-57
2023/09/18 09:22:43;;;;;;;0.50;0.20;;;20.10;12.00;;;;;;5155940;27;20411;-57
2023/09/18 09:25:31;;;;;;;0.70;0.20;;;19.90;20.60;;;;;;5140930;27;20825;-57
2023/09/18 09:27:59;;;;;;;0.40;0.20;;;19.80;69.00;;;;;;5156653;27;20426;-57
2023/09/18 09:30:28;;;;;;;0.50;0.30;;;19.60;82.20;;;;;;5158720;27;20426;-58
2023/09/18 09:32:56;;;;;;;0.70;0.20;;;19.50;95.70;;;;;;5157750;27;20525;-58
2023/09/18 09:35:27;;;;;;;0.40;0.20;;;19.40;99.90;;;;;;5157678;27;20427;-58
2023/09/18 09:37:57;;;;;;;0.90;0.30;;;19.40;99.90;;;;;;5156631;27;20419;-58
2023/09/18 09:40:26;;;;;;;0.80;0.20;;;19.50;99.90;;;;;;5157386;27;20409;-57
2023/09/18 09:43:00;;;;;;;0.70;0.30;;;19.50;95.60;;;;;;5158167;27;20697;-57
2023/09/18 09:45:30;;;;;;;0.57;0.30;;;19.60;99.90;;;;;;5157967;27;20472;-56
2023/09/18 09:47:58;;;;;;;0.50;0.30;;;19.60;99.90;;;;;;5157143;27;20424;-57
2023/09/18 09:50:26;;;;;;;0.70;0.30;;;19.60;99.90;;;;;;5157698;27;20424;-57
2023/09/18 09:52:56;;;;;;;0.50;0.20;;;19.90;99.60;;;;;;5156966;27;20477;-59
2023/09/18 09:55:26;;;;;;;0.50;0.20;;;20.00;67.00;;;;;;5157236;27;20409;-56
2023/09/18 09:57:57;;;;;;;1.60;0.30;;;20.00;60.00;;;;;;5125964;27;20909;-57
2023/09/18 10:00:31;;;;;;;1.45;0.30;;;20.00;75.90;;;;;;5136211;27;20426;-57
2023/09/18 10:03:01;;;;;;;0.70;0.30;;;20.30;61.30;;;;;;5125172;27;20916;-56
2023/09/18 10:05:31;;;;;;;1.40;0.20;;;20.50;43.10;;;;;;5122854;27;20575;-57
2023/09/18 10:08:07;;;;;;;1.80;0.50;;;20.60;22.50;;;;;;5129605;27;20426;-57
2023/09/18 10:10:38;;;;;;;0.80;0.30;;;20.60;16.20;;;;;;5127625;27;20421;-56
2023/09/18 10:13:11;;;;;;;1.20;0.20;;;20.60;2.90;;;;;;5151438;27;20429;-58
2023/09/18 10:15:42;;;;;;;0.70;0.30;;;20.50;29.90;;;;;;5151439;27;20533;-57
2023/09/18 10:18:18;;;;;;;1.20;0.30;;;20.50;55.70;;;;;;5138721;27;20929;-57
2023/09/18 10:20:48;;;;;;;1.70;0.30;;;20.40;46.70;;;;;;5133105;27;20581;-58
2023/09/18 10:23:27;;;;;;;24.85;19.25;;;20.30;43.70;;;;;;5132320;27;20431;-58
2023/09/18 10:26:03;;;;;;;0.70;0.40;;;20.20;61.50;;;;;;5139754;27;20709;-58
2023/09/18 10:28:32;;;;;;;0.80;0.30;;;20.30;78.00;;;;;;5133114;27;20817;-58
2023/09/18 10:31:01;;;;;;;1.00;0.30;;;20.30;70.80;;;;;;5139920;27;20467;-58
2023/09/18 10:33:29;;;;;;;1.25;0.30;;;20.30;57.00;;;;;;5154025;27;20456;-58
2023/09/18 10:35:58;;;;;;;1.40;0.30;;;20.40;71.30;;;;;;5151279;27;20727;-58
2023/09/18 10:38:27;;;;;;;1.83;0.30;;;20.50;96.70;;;;;;5144608;27;20455;-58
2023/09/18 10:40:57;;;;;;;0.93;0.30;;;20.50;76.60;;;;;;5136624;27;20831;-58
2023/09/18 10:43:24;;;;;;;0.80;0.40;;;20.30;79.50;;;;;;5140286;27;20851;-56
2023/09/18 10:45:52;;;;;;;0.90;0.30;;;20.10;95.10;;;;;;5151571;27;20529;-58
2023/09/18 10:48:22;;;;;;;1.17;0.30;;;20.00;85.50;;;;;;5157455;27;20420;-59
2023/09/18 10:50:50;;;;;;;1.40;0.30;;;19.90;93.30;;;;;;5149993;27;20493;-58
2023/09/18 10:53:19;;;;;;;1.80;0.30;;;19.90;88.30;;;;;;5155297;27;20432;-59
2023/09/18 10:55:49;;;;;;;0.63;0.30;;;19.90;99.90;;;;;;5148935;27;20432;-59
2023/09/18 10:58:25;;;;;;;0.50;0.20;;;19.80;99.90;;;;;;5154676;27;20419;-59
2023/09/18 11:00:52;;;;;;;1.60;0.30;;;19.90;99.90;;;;;;5154624;27;20514;-58
2023/09/18 11:03:23;;;;;;;1.15;0.30;;;19.90;99.90;;;;;;5153419;27;20412;-58
2023/09/18 11:06:04;;;;;;;0.50;0.30;;;19.80;99.90;;;;;;5138370;27;20434;-58
2023/09/18 11:08:35;;;;;;;1.40;0.37;;;19.80;94.80;;;;;;5128135;27;20542;-58
2023/09/18 11:11:11;;;;;;;1.30;0.50;;;19.80;91.90;;;;;;5114424;27;20470;-58
2023/09/18 11:13:41;;;;;;;1.10;0.30;;;19.70;99.90;;;;;;5112729;28;20452;-58
2023/09/18 11:16:18;;;;;;;0.70;0.30;;;19.70;99.90;;;;;;5126169;27;20422;-58
2023/09/18 11:18:52;;;;;;;1.60;0.30;;;19.80;99.90;;;;;;5133420;27;20526;-58
2023/09/18 11:21:24;;;;;;;1.00;0.30;;;19.90;96.20;;;;;;5132851;27;20863;-59
2023/09/18 11:24:00;;;;;;;0.70;0.28;;;20.00;99.90;;;;;;5132142;27;20509;-58
2023/09/18 11:26:32;;;;;;;1.42;0.40;;;20.10;93.30;;;;;;5131176;27;20880;-58
2023/09/18 11:29:04;;;;;;;0.50;0.20;;;20.00;92.10;;;;;;5132263;27;20683;-58
2023/09/18 11:31:46;;;;;;;1.30;0.30;;;20.00;83.50;;;;;;5133332;27;20415;-58
2023/09/18 11:34:15;;;;;;;0.77;0.30;;;20.00;90.50;;;;;;5132778;27;20422;-58
2023/09/18 11:36:42;;;;;;;1.05;0.30;;;19.90;77.50;;;;;;5133460;27;20482;-58
2023/09/18 11:39:11;;;;;;;0.80;0.30;;;19.90;90.90;;;;;;5133270;27;20466;-58
2023/09/18 11:41:40;;;;;;;0.70;0.20;;;19.90;96.90;;;;;;5132920;27;20505;-58
2023/09/18 11:44:34;;;;;;;0.40;0.20;;;20.10;58.00;;;;;;5133435;27;20505;-57
2023/09/18 11:47:04;;;;;;;0.70;0.20;;;20.30;19.80;;;;;;5133795;27;20425;-57
2023/09/18 11:49:32;;;;;;;0.50;0.20;;;20.40;1.00;;;;;;5132408;27;20438;-57
2023/09/18 11:52:00;;;;;;;0.40;0.20;;;20.50;5.00;;;;;;5121583;27;20808;-57
2023/09/18 11:54:30;;;;;;;0.98;0.30;;;20.40;1.00;;;;;;5132433;27;20433;-57
2023/09/18 11:57:04;;;;;;;0.50;0.30;;;20.30;1.00;;;;;;5116922;27;20889;-55
2023/09/18 11:59:36;;;;;;;0.43;0.20;;;20.30;13.80;;;;;;5119087;27;20426;-55
2023/09/18 12:02:06;;;;;;;0.93;0.30;;;20.20;1.00;;;;;;5130633;27;20441;-55
2023/09/18 12:04:35;;;;;;;0.50;0.20;;;20.20;29.00;;;;;;5125183;27;20416;-55
2023/09/18 12:07:03;;;;;;;0.82;0.30;;;20.20;13.40;;;;;;5126948;27;20469;-53
2023/09/18 12:09:31;;;;;;;1.20;0.40;;;20.30;15.70;;;;;;5114396;27;20599;-54
2023/09/18 12:12:03;;;;;;;1.30;0.30;;;20.30;15.10;;;;;;5111009;27;20445;-55
2023/09/18 12:14:32;;;;;;;0.50;0.20;;;20.40;1.30;;;;;;5129850;27;20428;-56
2023/09/18 12:17:01;;;;;;;0.60;0.20;;;20.50;1.40;;;;;;5137274;27;20829;-54
2023/09/18 12:19:28;;;;;;;0.52;0.20;;;20.40;10.80;;;;;;5133408;27;20817;-56
2023/09/18 12:21:56;;;;;;;0.50;0.20;;;20.30;11.00;;;;;;5135554;27;20863;-54
2023/09/18 12:24:23;;;;;;;0.60;0.30;;;20.30;15.90;;;;;;5146098;27;20424;-53
2023/09/18 12:26:51;;;;;;;1.20;0.40;;;20.30;34.30;;;;;;5129285;27;20865;-53
2023/09/18 12:29:20;;;;;;;2.00;0.73;;;20.30;45.10;;;;;;5135435;27;20471;-56
2023/09/18 12:31:50;;;;;;;0.80;0.40;;;20.30;30.00;;;;;;5140791;27;20430;-55
2023/09/18 12:34:18;;;;;;;0.60;0.20;;;20.40;45.20;;;;;;5131014;27;20800;-56
2023/09/18 12:36:47;;;;;;;1.63;0.30;;;20.50;21.00;;;;;;5121286;27;20497;-56
2023/09/18 12:39:16;;;;;;;0.50;0.30;;;20.60;7.10;;;;;;5116552;27;20434;-56
2023/09/18 12:41:44;;;;;;;0.90;0.40;;;20.70;6.90;;;;;;5132144;27;20462;-54
2023/09/18 12:44:11;;;;;;;0.50;0.30;;;20.70;99.90;;;;;;5138024;27;20862;-55
2023/09/18 12:46:44;;;;;;;1.20;0.40;;;20.80;99.90;;;;;;5130174;28;20426;-56
2023/09/18 12:49:18;;;;;;;1.00;0.40;;;21.00;99.90;;;;;;5132073;28;20457;-56
2023/09/18 12:51:54;;;;;;;0.88;0.30;;;21.30;99.90;;;;;;5136688;27;20540;-56
2023/09/18 12:54:21;;;;;;;0.50;0.20;;;21.40;99.90;;;;;;5136085;27;20426;-56
2023/09/18 12:56:50;;;;;;;0.60;0.30;;;21.60;99.90;;;;;;5133465;28;20429;-56
2023/09/18 12:59:18;;;;;;;1.90;0.30;;;21.70;99.90;;;;;;5129866;28;20434;-55
2023/09/18 13:01:49;;;;;;;0.90;0.30;;;21.60;99.90;;;;;;5131273;28;20422;-53